Observations for GUERNSEY AIRPORT, United Kingdom (EGJB)

EGJB 211750Z 25023KT 1300 R27/1300 -DZ VCFG SCT000 BKN001 11/11 Q1012   
EGJB 211720Z 25022KT 1300 R27/1000 -DZ VCFG SCT000 BKN001 11/11 Q1012   
EGJB 211650Z 25024KT 0500 R27/1000 -DZ FG BKN000 11/11 Q1012
EGJB 211620Z 25022KT 1500 -DZ BR FEW000 BKN001 BKN002 11/11 Q1012   
EGJB 211550Z 26023KT 2800 -DZ BR SCT002 BKN003 11/11 Q1013  
EGJB 211520Z 26022KT 3500 -DZ BR SCT002 BKN003 11/11 Q1013  
EGJB 211450Z 26023KT 8000 SCT004 BKN005 11/11 Q1013 
EGJB 211420Z 26022KT 6000 FEW002 BKN003 11/11 Q1013 
EGJB 211350Z 25020KT 8000 SCT002 BKN003 11/11 Q1013 
EGJB 211320Z 26020G31KT 9999 7000E FEW002 SCT003 BKN004 11/11 Q1013 
EGJB 211250Z 26022KT 7000 FEW001 SCT002 BKN003 11/11 Q1013  
EGJB 211220Z 26020KT 2000 -DZ BR VCFG SCT000 BKN001 11/11 Q1014 
EGJB 211150Z 26021KT 2000 -DZ BR VCFG SCT000 BKN001 11/11 Q1014 
EGJB 211120Z 26021KT 4500 BR FEW000 SCT001 BKN002 11/11 Q1014   
EGJB 211050Z 26022KT 3000 -DZ FEW000 SCT001 BKN002 11/11 Q1014  
EGJB 211020Z 26021KT 5000 -DZ FEW000 SCT002 BKN003 11/11 Q1014  
EGJB 210950Z 26020KT 2000 BR VCFG SCT000 BKN001 11/11 Q1014 
EGJB 210920Z 26020KT 1500 R27/1300 BR VCFG SCT000 BKN001 11/11 Q1013
EGJB 210850Z 26019KT 0400 R27/0750 -DZ FG BKN000 11/11 Q1013
EGJB 210820Z 23012KT 0300 R27/0400 -DZ FG BKN000 10/10 Q1014
EGJB 210750Z 21010KT 0250 R27/0450 -DZ FG OVC000 09/09 Q1014 REDZ   
EGJB 210720Z 21010KT 1000 0600SE R27/P1500 DZ BCFG SCT000 BKN001 09/08 Q1014
EGJB 210650Z 20008KT 0400 R27/0900 -DZ FG BKN000 09/08 Q1014
EGJB 210620Z 20007KT 0500 R27/P1500 -RADZ FG BKN000 BKN001 08/08 Q1014 REDZ 
EGJB 210550Z 23004KT 3300 DZ FEW005 BKN008 08/08 Q1015  
EGJB 210520Z 25004KT 8000 -RADZ FEW005 BKN011 BKN024 08/08 Q1014
EGJB 210450Z 29004KT 4200 -RADZ FEW006 BKN021 08/08 Q1015   
EGJB 210420Z 29006KT 4500 -RADZ SCT005 BKN019 08/08 Q1014 REDZ  
EGJB 210350Z 27004KT 230V300 2800 DZ BKN007 BKN012 09/08 Q1014  
EGJB 202050Z 30016KT 9999 FEW018 10/06 Q1009
EGJB 202020Z 30016KT 9999 FEW018 SCT026 10/07 Q1009 
EGJB 201950Z 30019KT 9999 FEW018 SCT026 10/06 Q1007 
EGJB 201920Z 31020G30KT 9999 FEW018 SCT032 10/05 Q1007  
EGJB 201850Z 30021KT 9999 FEW015 SCT032 10/06 Q1006 
EGJB 201820Z 29021G31KT 9000 -RA FEW012 BKN018 BKN032 11/08 Q1006   
EGJB 201750Z 29018KT 9999 FEW012 SCT038 11/08 Q1005 
EGJB 201720Z 29021KT 9999 FEW010 SCT018 11/09 Q1004